createdAt,value
2022-12-29T00:01:02.660Z,9.80
2022-12-29T00:03:30.742Z,9.43
2022-12-29T00:06:00.098Z,9.87
2022-12-29T00:08:40.873Z,8.97
2022-12-29T00:11:09.597Z,9.63
2022-12-29T00:13:54.833Z,9.93
2022-12-29T00:16:22.572Z,9.33
2022-12-29T00:18:50.705Z,9.53
2022-12-29T00:21:39.491Z,9.50
2022-12-29T00:24:25.470Z,9.37
2022-12-29T00:27:15.410Z,8.93
2022-12-29T00:30:00.867Z,9.23
2022-12-29T00:32:46.025Z,9.13
2022-12-29T00:35:16.642Z,9.20
2022-12-29T00:38:07.007Z,9.93
2022-12-29T00:40:52.350Z,10.17
2022-12-29T00:43:37.590Z,10.57
2022-12-29T00:46:05.600Z,9.83
2022-12-29T00:48:47.314Z,10.77
2022-12-29T00:51:15.124Z,10.77
2022-12-29T00:53:44.273Z,10.80
2022-12-29T00:56:12.046Z,10.70
2022-12-29T00:58:39.812Z,11.00
2022-12-29T01:01:09.374Z,10.50
2022-12-29T01:03:38.634Z,10.93
2022-12-29T01:06:08.607Z,11.20
2022-12-29T01:08:36.712Z,10.97
2022-12-29T01:11:08.373Z,12.07
2022-12-29T01:13:36.256Z,11.43
2022-12-29T01:16:04.755Z,10.77
2022-12-29T01:18:32.545Z,10.67
2022-12-29T01:21:02.161Z,11.00
2022-12-29T01:23:30.583Z,11.47
2022-12-29T01:25:58.905Z,11.43
2022-12-29T01:28:28.011Z,11.23
2022-12-29T01:30:55.714Z,11.70
2022-12-29T01:33:23.551Z,11.80
2022-12-29T01:35:51.297Z,12.37
2022-12-29T01:38:18.999Z,12.97
2022-12-29T01:40:47.113Z,12.67
2022-12-29T01:43:16.224Z,13.00
2022-12-29T01:45:48.225Z,13.00
2022-12-29T01:48:16.137Z,12.77
2022-12-29T01:50:46.011Z,12.67
2022-12-29T01:53:18.275Z,13.73
2022-12-29T01:55:50.597Z,13.53
2022-12-29T01:58:21.860Z,13.47
2022-12-29T02:00:50.980Z,13.17
2022-12-29T02:03:19.675Z,15.33
2022-12-29T02:05:51.032Z,13.63
2022-12-29T02:08:18.989Z,14.13
2022-12-29T02:10:47.007Z,14.00
2022-12-29T02:13:17.309Z,13.77
2022-12-29T02:15:56.880Z,13.53
2022-12-29T02:18:34.558Z,12.60
2022-12-29T02:21:25.849Z,13.00
2022-12-29T02:24:12.377Z,13.20
2022-12-29T02:26:52.060Z,12.43
2022-12-29T02:29:41.671Z,14.70
2022-12-29T02:32:14.300Z,12.77
2022-12-29T02:34:49.496Z,12.73
2022-12-29T02:37:22.485Z,12.57
2022-12-29T02:39:55.846Z,13.13
2022-12-29T02:42:28.319Z,13.50
2022-12-29T02:44:58.025Z,12.43
2022-12-29T02:47:32.429Z,12.47
2022-12-29T02:50:04.887Z,11.73
2022-12-29T02:52:35.781Z,12.03
2022-12-29T02:55:02.593Z,11.93
2022-12-29T02:57:34.420Z,12.43
2022-12-29T03:00:08.480Z,12.13
2022-12-29T03:03:01.440Z,12.63
2022-12-29T03:05:42.194Z,12.30
2022-12-29T03:08:23.383Z,12.20
2022-12-29T03:10:56.871Z,12.47
2022-12-29T03:13:47.985Z,12.07
2022-12-29T03:16:22.604Z,11.93
2022-12-29T03:18:58.720Z,12.43
2022-12-29T03:21:45.733Z,12.53
2022-12-29T03:24:13.671Z,12.30
2022-12-29T03:26:43.928Z,12.43
2022-12-29T03:29:15.173Z,12.50
2022-12-29T03:31:44.409Z,12.73
2022-12-29T03:34:14.244Z,12.63
2022-12-29T03:36:46.456Z,12.47
2022-12-29T03:39:14.529Z,13.00
2022-12-29T03:41:43.951Z,12.37
2022-12-29T03:44:12.077Z,13.57
2022-12-29T03:46:39.995Z,12.60
2022-12-29T03:49:07.769Z,13.67
2022-12-29T03:51:36.877Z,13.27
2022-12-29T03:54:04.813Z,12.90
2022-12-29T03:56:32.837Z,12.90
2022-12-29T03:59:00.596Z,13.83
2022-12-29T04:01:28.472Z,13.07
2022-12-29T04:03:56.309Z,12.87
2022-12-29T04:06:25.777Z,12.73
2022-12-29T04:08:54.955Z,13.97
2022-12-29T04:11:25.192Z,14.07
2022-12-29T04:13:56.209Z,13.90
2022-12-29T04:16:24.044Z,14.37
2022-12-29T04:18:53.772Z,13.37
2022-12-29T04:21:21.525Z,13.97
2022-12-29T04:23:49.254Z,13.77
2022-12-29T04:26:18.358Z,13.93
2022-12-29T04:28:46.075Z,14.53
2022-12-29T04:31:14.128Z,16.33
2022-12-29T04:33:43.105Z,14.40
2022-12-29T04:36:10.989Z,14.67
2022-12-29T04:38:38.807Z,14.40
2022-12-29T04:41:06.904Z,14.83
2022-12-29T04:43:36.271Z,13.93
2022-12-29T04:46:04.331Z,14.53
2022-12-29T04:48:32.115Z,14.00
2022-12-29T04:51:00.105Z,14.37
2022-12-29T04:53:31.786Z,14.17
2022-12-29T04:55:59.527Z,14.47
2022-12-29T04:58:27.247Z,14.90
2022-12-29T05:00:56.408Z,14.53
2022-12-29T05:03:24.172Z,14.53
2022-12-29T05:05:57.207Z,14.37
2022-12-29T05:08:28.302Z,14.73
2022-12-29T05:10:56.355Z,15.20
2022-12-29T05:13:24.199Z,14.17
2022-12-29T05:15:52.900Z,15.73
2022-12-29T05:18:22.289Z,15.00
2022-12-29T05:20:50.141Z,15.33
2022-12-29T05:23:18.212Z,15.37
2022-12-29T05:25:47.235Z,15.57
2022-12-29T05:28:15.280Z,15.53
2022-12-29T05:30:43.031Z,15.80
2022-12-29T05:33:12.529Z,17.37
2022-12-29T05:35:41.799Z,17.57
2022-12-29T05:38:09.551Z,17.17
2022-12-29T05:40:37.319Z,16.83
2022-12-29T05:43:06.752Z,16.93
2022-12-29T05:45:35.436Z,17.77
2022-12-29T05:48:03.177Z,17.03
2022-12-29T05:50:31.144Z,16.77
2022-12-29T05:53:00.270Z,16.27
2022-12-29T05:55:28.195Z,17.07
2022-12-29T05:57:55.952Z,18.43
2022-12-29T06:00:23.725Z,18.13
2022-12-29T06:02:51.864Z,16.53
2022-12-29T06:05:20.328Z,18.47
2022-12-29T06:07:48.383Z,17.67
2022-12-29T06:10:17.847Z,18.90
2022-12-29T06:12:45.638Z,17.93
2022-12-29T06:15:13.414Z,17.67
2022-12-29T06:17:41.708Z,17.70
2022-12-29T06:20:10.666Z,16.30
2022-12-29T06:22:39.897Z,17.90
2022-12-29T06:25:08.607Z,17.37
2022-12-29T06:27:37.708Z,17.50
2022-12-29T06:30:06.097Z,16.70
2022-12-29T06:32:34.054Z,17.03
2022-12-29T06:35:03.424Z,17.07
2022-12-29T06:37:32.841Z,16.70
2022-12-29T06:40:00.637Z,17.83
2022-12-29T06:42:28.377Z,18.90
2022-12-29T06:44:59.465Z,18.07
2022-12-29T06:47:27.367Z,18.57
2022-12-29T06:49:55.449Z,18.03
2022-12-29T06:52:25.004Z,17.87
2022-12-29T06:54:52.795Z,18.47
2022-12-29T06:57:20.532Z,19.07
2022-12-29T06:59:48.473Z,19.83
2022-12-29T07:02:20.740Z,19.60
2022-12-29T07:04:48.707Z,20.40
2022-12-29T07:07:16.998Z,19.60
2022-12-29T07:09:45.196Z,19.90
2022-12-29T07:12:13.017Z,20.20
2022-12-29T07:14:43.153Z,20.33
2022-12-29T07:17:11.537Z,20.80
2022-12-29T07:19:40.725Z,19.40
2022-12-29T07:22:08.455Z,19.60
2022-12-29T07:24:36.428Z,19.67
2022-12-29T07:27:04.166Z,20.17
2022-12-29T07:29:31.916Z,20.33
2022-12-29T07:32:00.023Z,21.17
2022-12-29T07:34:27.869Z,22.63
2022-12-29T07:36:57.249Z,22.43
2022-12-29T07:39:24.969Z,25.27
2022-12-29T07:41:52.736Z,24.33
2022-12-29T07:44:20.947Z,23.67
2022-12-29T07:46:55.407Z,23.73
2022-12-29T07:49:26.412Z,24.53
2022-12-29T07:51:54.307Z,23.37
2022-12-29T07:54:23.583Z,22.77
2022-12-29T07:56:52.277Z,23.37
2022-12-29T07:59:20.210Z,22.30
2022-12-29T08:01:49.624Z,23.33
2022-12-29T08:04:17.847Z,25.70
2022-12-29T08:06:46.436Z,24.13
2022-12-29T08:09:19.774Z,24.37
2022-12-29T08:11:51.579Z,23.03
2022-12-29T08:14:19.576Z,23.23
2022-12-29T08:16:47.314Z,25.03
2022-12-29T08:19:15.493Z,23.47
2022-12-29T08:21:43.621Z,23.63
2022-12-29T08:24:11.660Z,24.03
2022-12-29T08:26:39.473Z,23.77
2022-12-29T08:29:09.260Z,22.77
2022-12-29T08:31:37.245Z,25.00
2022-12-29T08:34:05.293Z,24.87
2022-12-29T08:36:33.294Z,24.27
2022-12-29T08:39:01.307Z,26.37
2022-12-29T08:41:29.045Z,27.20
2022-12-29T08:43:56.873Z,27.40
2022-12-29T08:46:26.109Z,26.63
2022-12-29T08:48:53.848Z,28.77
2022-12-29T08:51:24.652Z,25.97
2022-12-29T08:53:53.307Z,26.57
2022-12-29T08:56:21.360Z,26.37
2022-12-29T08:58:49.154Z,25.03
2022-12-29T09:01:16.984Z,26.97
2022-12-29T09:04:13.532Z,25.77
2022-12-29T09:06:39.922Z,24.43
2022-12-29T09:09:08.141Z,24.50
2022-12-29T09:11:36.018Z,24.80
2022-12-29T09:14:04.070Z,25.10
2022-12-29T09:16:31.994Z,24.50
2022-12-29T09:19:01.268Z,25.13
2022-12-29T09:21:30.511Z,24.93
2022-12-29T09:23:58.269Z,25.17
2022-12-29T09:26:26.275Z,25.33
2022-12-29T09:28:54.492Z,23.53
2022-12-29T09:31:23.145Z,24.30
2022-12-29T09:33:51.138Z,25.97
2022-12-29T09:36:20.238Z,23.97
2022-12-29T09:38:48.022Z,23.73
2022-12-29T09:41:19.081Z,24.30
2022-12-29T09:44:04.481Z,23.63
2022-12-29T09:46:35.776Z,23.67
2022-12-29T09:49:10.452Z,25.10
2022-12-29T09:51:40.516Z,24.97
2022-12-29T09:54:25.116Z,25.50
2022-12-29T09:56:53.060Z,23.90
2022-12-29T09:59:24.704Z,25.17
2022-12-29T10:01:58.416Z,24.03
2022-12-29T10:04:30.597Z,24.03
2022-12-29T10:07:29.039Z,24.10
2022-12-29T10:09:58.724Z,24.27
2022-12-29T10:12:29.541Z,23.83
2022-12-29T10:15:05.800Z,24.20
2022-12-29T10:17:40.202Z,23.70
2022-12-29T10:20:28.291Z,25.57
2022-12-29T10:23:13.571Z,26.07
2022-12-29T10:25:42.987Z,24.80
2022-12-29T10:28:19.407Z,26.10
2022-12-29T10:30:48.493Z,25.10
2022-12-29T10:33:19.828Z,25.67
2022-12-29T10:35:49.691Z,25.10
2022-12-29T10:38:24.931Z,24.97
2022-12-29T10:40:56.755Z,23.83
2022-12-29T10:43:27.961Z,24.80
2022-12-29T10:45:57.372Z,25.27
2022-12-29T10:48:31.606Z,23.97
2022-12-29T10:51:02.513Z,25.47
2022-12-29T10:53:36.568Z,25.50
2022-12-29T10:56:07.076Z,26.37
2022-12-29T10:58:34.953Z,23.40
2022-12-29T11:01:04.802Z,27.00
2022-12-29T11:03:46.902Z,27.40
2022-12-29T11:06:19.248Z,26.70
2022-12-29T11:08:54.766Z,26.80
2022-12-29T11:11:28.115Z,27.30
2022-12-29T11:14:00.580Z,24.80
2022-12-29T11:16:35.690Z,26.00
2022-12-29T11:19:04.186Z,24.27
2022-12-29T11:21:41.113Z,24.47
2022-12-29T11:24:22.384Z,23.40
2022-12-29T11:26:53.863Z,23.53
2022-12-29T11:29:27.155Z,23.50
2022-12-29T11:31:59.136Z,22.67
2022-12-29T11:34:31.291Z,22.97
2022-12-29T11:37:04.036Z,22.30
2022-12-29T11:39:36.456Z,22.43
2022-12-29T11:42:05.182Z,22.80
2022-12-29T11:44:39.038Z,23.00
2022-12-29T11:47:07.725Z,23.30
2022-12-29T11:52:17.223Z,22.50
2022-12-29T11:54:46.310Z,22.17
2022-12-29T11:57:15.704Z,21.37
2022-12-29T11:59:46.165Z,21.33
2022-12-29T12:02:42.968Z,21.20
2022-12-29T12:05:15.775Z,19.37
2022-12-29T12:07:45.280Z,19.60
2022-12-29T12:10:20.591Z,18.80
2022-12-29T12:12:54.009Z,19.07
2022-12-29T12:15:27.513Z,18.20
2022-12-29T12:17:57.733Z,19.43
2022-12-29T12:20:30.384Z,18.47
2022-12-29T12:23:09.611Z,17.93
2022-12-29T12:25:40.784Z,18.27
2022-12-29T12:28:13.837Z,18.23
2022-12-29T12:30:45.255Z,18.40
2022-12-29T12:33:18.671Z,17.43
2022-12-29T12:35:52.045Z,18.80
2022-12-29T12:38:27.617Z,17.77
2022-12-29T12:41:09.140Z,22.53
2022-12-29T12:43:43.035Z,20.30
2022-12-29T12:46:21.878Z,21.67
2022-12-29T12:49:02.129Z,20.77
2022-12-29T12:51:35.905Z,19.73
2022-12-29T12:54:13.264Z,19.37
2022-12-29T12:56:52.712Z,19.07
2022-12-29T12:59:32.564Z,19.03
2022-12-29T13:02:05.120Z,18.77
2022-12-29T13:05:01.168Z,20.23
2022-12-29T13:07:35.027Z,18.93
2022-12-29T13:10:21.644Z,18.63
2022-12-29T13:12:57.010Z,18.73
2022-12-29T13:15:40.336Z,18.07
2022-12-29T13:18:15.499Z,19.33
2022-12-29T13:20:48.522Z,18.67
2022-12-29T13:23:20.009Z,18.10
2022-12-29T13:25:52.662Z,19.03
2022-12-29T13:28:26.136Z,19.00
2022-12-29T13:31:00.147Z,19.97
2022-12-29T13:33:32.427Z,19.80
2022-12-29T13:36:03.193Z,19.07
2022-12-29T13:38:35.710Z,19.50
2022-12-29T13:41:08.271Z,19.80
2022-12-29T13:43:41.634Z,19.90
2022-12-29T13:46:13.094Z,19.53
2022-12-29T13:48:45.784Z,20.07
2022-12-29T13:51:14.004Z,20.97
2022-12-29T13:53:53.829Z,20.10
2022-12-29T13:56:25.525Z,19.80
2022-12-29T13:58:56.901Z,20.83
2022-12-29T14:01:29.301Z,19.23
2022-12-29T14:03:58.636Z,21.10
2022-12-29T14:06:28.071Z,19.67
2022-12-29T14:08:57.492Z,21.60
2022-12-29T14:11:32.380Z,20.37
2022-12-29T14:14:02.008Z,21.23
2022-12-29T14:16:32.543Z,22.10
2022-12-29T14:19:07.859Z,21.07
2022-12-29T14:21:36.113Z,21.40
2022-12-29T14:24:40.863Z,21.57
2022-12-29T14:27:54.462Z,19.23
2022-12-29T14:30:52.872Z,20.80
2022-12-29T14:33:21.405Z,20.67
2022-12-29T14:35:53.140Z,20.13
2022-12-29T14:38:24.246Z,20.93
2022-12-29T14:40:52.945Z,21.87
2022-12-29T14:43:23.882Z,21.60
2022-12-29T14:45:58.333Z,21.63
2022-12-29T14:48:49.902Z,22.50
2022-12-29T14:51:31.744Z,21.77
2022-12-29T14:53:59.487Z,20.93
2022-12-29T14:56:30.799Z,20.43
2022-12-29T14:58:59.982Z,21.73
2022-12-29T15:01:43.482Z,20.03
2022-12-29T15:04:20.043Z,20.10
2022-12-29T15:06:48.243Z,21.20
2022-12-29T15:09:25.447Z,20.93
2022-12-29T15:11:54.730Z,21.13
2022-12-29T15:14:37.712Z,21.73
2022-12-29T15:17:14.579Z,22.50
2022-12-29T15:19:42.330Z,22.10
2022-12-29T15:22:11.399Z,21.30
2022-12-29T15:24:43.544Z,22.00
2022-12-29T15:27:15.428Z,22.07
2022-12-29T15:29:44.463Z,21.13
2022-12-29T15:32:19.680Z,22.20
2022-12-29T15:34:49.227Z,22.60
2022-12-29T15:37:20.255Z,22.07
2022-12-29T15:39:49.347Z,19.83
2022-12-29T15:42:51.001Z,21.03
2022-12-29T15:45:19.002Z,20.67
2022-12-29T15:47:50.294Z,22.20
2022-12-29T15:50:25.275Z,22.03
2022-12-29T15:52:55.131Z,21.30
2022-12-29T15:55:30.029Z,21.07
2022-12-29T15:57:59.354Z,21.77
2022-12-29T16:00:29.097Z,21.80
2022-12-29T16:03:00.703Z,22.30
2022-12-29T16:05:34.691Z,22.40
2022-12-29T16:08:02.783Z,24.10
2022-12-29T16:10:35.657Z,24.20
2022-12-29T16:13:05.605Z,24.77
2022-12-29T16:15:33.689Z,23.60
2022-12-29T16:18:02.900Z,24.10
2022-12-29T16:20:41.752Z,22.83
2022-12-29T16:23:19.901Z,22.83
2022-12-29T16:25:47.721Z,22.67
2022-12-29T16:28:20.656Z,24.30
2022-12-29T16:30:48.929Z,23.93
2022-12-29T16:33:39.169Z,24.47
2022-12-29T16:36:25.371Z,25.80
2022-12-29T16:38:53.209Z,24.43
2022-12-29T16:41:33.879Z,25.73
2022-12-29T16:44:20.500Z,24.90
2022-12-29T16:47:08.310Z,24.03
2022-12-29T16:49:38.517Z,24.47
2022-12-29T16:52:14.847Z,24.00
2022-12-29T16:54:43.228Z,23.13
2022-12-29T16:57:11.316Z,22.40
2022-12-29T16:59:40.850Z,23.87
2022-12-29T17:02:13.264Z,21.77
2022-12-29T17:04:42.595Z,21.47
2022-12-29T17:07:16.072Z,22.20
2022-12-29T17:09:43.850Z,21.00
2022-12-29T17:12:13.767Z,20.90
2022-12-29T17:14:46.596Z,20.90
2022-12-29T17:17:20.513Z,21.50
2022-12-29T17:19:51.704Z,20.77
2022-12-29T17:22:22.806Z,20.87
2022-12-29T17:24:50.554Z,21.77
2022-12-29T17:27:24.964Z,21.97
2022-12-29T17:29:53.289Z,21.57
2022-12-29T17:32:21.137Z,21.20
2022-12-29T17:34:50.243Z,21.63
2022-12-29T17:37:29.741Z,22.00
2022-12-29T17:39:57.574Z,22.60
2022-12-29T17:42:25.420Z,22.37
2022-12-29T17:44:53.272Z,22.20
2022-12-29T17:47:20.965Z,22.73
2022-12-29T17:49:50.042Z,24.40
2022-12-29T17:52:18.461Z,25.73
2022-12-29T17:54:49.206Z,24.27
2022-12-29T17:57:17.879Z,26.13
2022-12-29T17:59:45.951Z,26.43
2022-12-29T18:02:34.673Z,25.83
2022-12-29T18:05:04.046Z,24.60
2022-12-29T18:07:35.879Z,25.93
2022-12-29T18:10:06.453Z,25.83
2022-12-29T18:12:39.291Z,26.53
2022-12-29T18:15:10.049Z,25.13
2022-12-29T18:17:37.796Z,26.73
2022-12-29T18:20:08.034Z,25.07
2022-12-29T18:22:35.835Z,25.77
2022-12-29T18:25:04.801Z,25.77
2022-12-29T18:27:34.004Z,25.63
2022-12-29T18:30:02.001Z,25.83
2022-12-29T18:32:29.922Z,25.30
2022-12-29T18:34:57.655Z,25.53
2022-12-29T18:37:26.849Z,27.87
2022-12-29T18:39:54.717Z,27.57
2022-12-29T18:42:22.652Z,28.50
2022-12-29T18:44:50.644Z,28.40
2022-12-29T18:47:18.473Z,25.50
2022-12-29T18:49:46.510Z,26.17
2022-12-29T18:52:14.753Z,26.03
2022-12-29T18:54:43.943Z,26.67
2022-12-29T18:57:11.694Z,26.43
2022-12-29T18:59:39.468Z,26.57
2022-12-29T19:02:07.318Z,26.67
2022-12-29T19:04:35.569Z,26.13
2022-12-29T19:07:03.361Z,25.97
2022-12-29T19:09:31.062Z,26.73
2022-12-29T19:12:00.140Z,25.93
2022-12-29T19:14:27.894Z,25.77
2022-12-29T19:16:55.977Z,25.60
2022-12-29T19:19:23.756Z,25.63
2022-12-29T19:21:56.462Z,27.20
2022-12-29T19:24:24.311Z,26.37
2022-12-29T19:26:52.009Z,27.37
2022-12-29T19:29:22.436Z,26.53
2022-12-29T19:31:50.373Z,27.10
2022-12-29T19:34:18.461Z,26.33
2022-12-29T19:36:46.724Z,26.73
2022-12-29T19:39:14.507Z,29.10
2022-12-29T19:41:42.453Z,27.83
2022-12-29T19:44:10.180Z,28.03
2022-12-29T19:46:39.463Z,27.97
2022-12-29T19:49:07.343Z,27.00
2022-12-29T19:51:35.087Z,29.23
2022-12-29T19:54:02.906Z,32.00
2022-12-29T19:56:30.660Z,33.87
2022-12-29T19:58:58.554Z,35.70
2022-12-29T20:01:27.403Z,34.70
2022-12-29T20:03:56.807Z,32.40
2022-12-29T20:06:24.636Z,31.97
2022-12-29T20:08:52.421Z,33.17
2022-12-29T20:11:20.521Z,32.60
2022-12-29T20:13:48.671Z,34.80
2022-12-29T20:16:18.508Z,34.33
2022-12-29T20:18:46.856Z,32.90
2022-12-29T20:21:17.803Z,33.17
2022-12-29T20:23:47.070Z,33.03
2022-12-29T20:26:16.416Z,34.67
2022-12-29T20:28:44.431Z,33.83
2022-12-29T20:31:17.055Z,33.50
2022-12-29T20:33:45.045Z,34.87
2022-12-29T20:36:17.664Z,33.97
2022-12-29T20:38:46.089Z,33.00
2022-12-29T20:41:14.543Z,32.53
2022-12-29T20:43:43.110Z,30.33
2022-12-29T20:46:11.748Z,30.97
2022-12-29T20:48:39.620Z,30.27
2022-12-29T20:51:07.621Z,31.33
2022-12-29T20:53:39.950Z,29.53
2022-12-29T20:56:11.271Z,29.37
2022-12-29T20:59:00.191Z,30.10
2022-12-29T21:01:27.306Z,28.57
2022-12-29T21:03:55.187Z,29.27
2022-12-29T21:06:22.980Z,29.90
2022-12-29T21:08:53.417Z,30.27
2022-12-29T21:11:22.223Z,31.07
2022-12-29T21:13:50.409Z,32.10
2022-12-29T21:16:21.112Z,31.50
2022-12-29T21:18:49.439Z,32.70
2022-12-29T21:21:19.128Z,33.13
2022-12-29T21:23:46.922Z,31.87
2022-12-29T21:26:19.454Z,31.43
2022-12-29T21:28:47.486Z,32.80
2022-12-29T21:31:24.380Z,33.13
2022-12-29T21:33:52.422Z,33.23
2022-12-29T21:36:20.414Z,32.90
2022-12-29T21:38:48.205Z,29.97
2022-12-29T21:41:18.596Z,29.30
2022-12-29T21:44:08.751Z,28.70
2022-12-29T21:46:37.477Z,27.53
2022-12-29T21:49:06.433Z,29.83
2022-12-29T21:51:53.869Z,29.97
2022-12-29T21:54:41.849Z,28.17
2022-12-29T21:57:17.860Z,28.70
2022-12-29T22:00:14.456Z,28.17
2022-12-29T22:03:00.117Z,29.60
2022-12-29T22:05:45.405Z,28.87
2022-12-29T22:08:30.542Z,28.37
2022-12-29T22:11:15.792Z,29.53
2022-12-29T22:13:45.128Z,31.87
2022-12-29T22:16:13.362Z,30.70
2022-12-29T22:18:41.177Z,29.37
2022-12-29T22:21:10.541Z,30.03
2022-12-29T22:23:38.728Z,29.93
2022-12-29T22:26:07.260Z,28.60
2022-12-29T22:28:37.877Z,29.37
2022-12-29T22:31:08.265Z,30.33
2022-12-29T22:33:36.022Z,28.00
2022-12-29T22:36:04.332Z,31.03
2022-12-29T22:38:32.069Z,30.27
2022-12-29T22:41:01.021Z,28.90
2022-12-29T22:43:29.935Z,29.73
2022-12-29T22:46:03.357Z,28.27
2022-12-29T22:48:34.001Z,29.60
2022-12-29T22:51:02.130Z,28.13
2022-12-29T22:53:30.009Z,28.43
2022-12-29T22:56:05.578Z,27.93
2022-12-29T22:58:33.484Z,27.07
2022-12-29T23:01:05.462Z,26.37
2022-12-29T23:03:35.056Z,26.57
2022-12-29T23:06:04.846Z,25.57
2022-12-29T23:08:35.496Z,25.70
2022-12-29T23:11:04.528Z,26.20
2022-12-29T23:13:32.327Z,25.83
2022-12-29T23:16:00.138Z,25.20
2022-12-29T23:18:28.067Z,26.00
2022-12-29T23:20:57.227Z,25.17
2022-12-29T23:23:46.264Z,24.93
2022-12-29T23:26:16.475Z,25.13
2022-12-29T23:28:44.308Z,25.30
2022-12-29T23:31:12.096Z,25.70
2022-12-29T23:33:40.016Z,24.90
2022-12-29T23:36:09.989Z,26.03
2022-12-29T23:38:37.749Z,25.53
2022-12-29T23:41:05.959Z,25.03
2022-12-29T23:43:33.893Z,25.27
2022-12-29T23:46:07.161Z,24.87
2022-12-29T23:48:35.050Z,24.93
2022-12-29T23:51:02.807Z,23.33
2022-12-29T23:53:32.045Z,27.50
2022-12-29T23:55:59.916Z,28.00
2022-12-29T23:58:30.141Z,25.53
